sensor_id;sensor_type;location;lat;lon;timestamp;P1;P2;P0
62547;PMS7003;48602;45.192;5.722;2023-07-02T00:00:50;12.00;11.25;9.00
62547;PMS7003;48602;45.192;5.722;2023-07-02T00:03:16;13.50;12.75;10.25
62547;PMS7003;48602;45.192;5.722;2023-07-02T00:05:46;14.50;12.50;10.25
62547;PMS7003;48602;45.192;5.722;2023-07-02T00:08:12;16.00;14.00;10.50
62547;PMS7003;48602;45.192;5.722;2023-07-02T00:10:38;11.00;11.00;9.25
62547;PMS7003;48602;45.192;5.722;2023-07-02T00:13:03;12.75;11.75;8.75
62547;PMS7003;48602;45.192;5.722;2023-07-02T00:15:28;11.00;11.00;9.25
62547;PMS7003;48602;45.192;5.722;2023-07-02T00:17:54;11.00;10.25;7.75
62547;PMS7003;48602;45.192;5.722;2023-07-02T00:20:22;9.60;9.20;7.80
62547;PMS7003;48602;45.192;5.722;2023-07-02T00:22:48;9.25;8.50;7.75
62547;PMS7003;48602;45.192;5.722;2023-07-02T00:25:14;12.75;11.25;9.00
62547;PMS7003;48602;45.192;5.722;2023-07-02T00:27:40;10.00;10.00;9.00
62547;PMS7003;48602;45.192;5.722;2023-07-02T00:30:05;12.25;9.50;8.75
62547;PMS7003;48602;45.192;5.722;2023-07-02T00:32:31;9.00;9.00;8.00
62547;PMS7003;48602;45.192;5.722;2023-07-02T00:34:57;9.00;9.00;7.50
62547;PMS7003;48602;45.192;5.722;2023-07-02T00:37:23;7.40;7.00;6.00
62547;PMS7003;48602;45.192;5.722;2023-07-02T00:39:49;6.75;6.75;5.75
62547;PMS7003;48602;45.192;5.722;2023-07-02T00:42:14;6.25;6.25;6.00
62547;PMS7003;48602;45.192;5.722;2023-07-02T00:44:41;10.75;9.75;6.00
62547;PMS7003;48602;45.192;5.722;2023-07-02T00:47:10;13.50;12.50;8.75
62547;PMS7003;48602;45.192;5.722;2023-07-02T00:49:36;15.40;14.40;10.00
62547;PMS7003;48602;45.192;5.722;2023-07-02T00:52:02;15.25;15.25;11.25
62547;PMS7003;48602;45.192;5.722;2023-07-02T00:54:28;13.00;13.00;10.25
62547;PMS7003;48602;45.192;5.722;2023-07-02T00:56:54;8.00;7.75;6.00
62547;PMS7003;48602;45.192;5.722;2023-07-02T00:59:20;12.75;12.50;9.00
62547;PMS7003;48602;45.192;5.722;2023-07-02T01:01:45;19.50;16.75;12.25
62547;PMS7003;48602;45.192;5.722;2023-07-02T01:04:16;14.25;14.00;9.00
62547;PMS7003;48602;45.192;5.722;2023-07-02T01:06:43;17.50;16.00;11.00
62547;PMS7003;48602;45.192;5.722;2023-07-02T01:09:09;13.00;13.00;9.80
62547;PMS7003;48602;45.192;5.722;2023-07-02T01:14:21;14.50;14.00;11.50
62547;PMS7003;48602;45.192;5.722;2023-07-02T01:16:51;16.75;13.50;10.75
62547;PMS7003;48602;45.192;5.722;2023-07-02T01:19:22;16.40;13.80;9.40
62547;PMS7003;48602;45.192;5.722;2023-07-02T01:21:57;15.25;15.25;11.00
62547;PMS7003;48602;45.192;5.722;2023-07-02T01:24:23;15.50;14.75;11.75
62547;PMS7003;48602;45.192;5.722;2023-07-02T01:26:49;16.00;15.00;10.50
62547;PMS7003;48602;45.192;5.722;2023-07-02T01:29:18;15.00;14.75;11.50
62547;PMS7003;48602;45.192;5.722;2023-07-02T01:31:45;12.00;9.00;8.00
62547;PMS7003;48602;45.192;5.722;2023-07-02T01:34:12;11.25;10.00;9.00
62547;PMS7003;48602;45.192;5.722;2023-07-02T01:36:39;12.75;10.25;8.50
62547;PMS7003;48602;45.192;5.722;2023-07-02T01:39:04;12.60;11.60;8.20
62547;PMS7003;48602;45.192;5.722;2023-07-02T01:41:31;13.25;11.75;9.25
62547;PMS7003;48602;45.192;5.722;2023-07-02T01:44:03;6.50;5.00;4.00
62547;PMS7003;48602;45.192;5.722;2023-07-02T01:46:28;13.50;12.75;10.75
62547;PMS7003;48602;45.192;5.722;2023-07-02T01:48:54;12.50;12.50;10.00
62547;PMS7003;48602;45.192;5.722;2023-07-02T01:51:19;13.50;11.50;9.75
62547;PMS7003;48602;45.192;5.722;2023-07-02T01:53:44;14.00;14.00;12.00
62547;PMS7003;48602;45.192;5.722;2023-07-02T01:56:10;12.50;12.50;11.25
62547;PMS7003;48602;45.192;5.722;2023-07-02T01:58:35;18.75;17.25;14.00
62547;PMS7003;48602;45.192;5.722;2023-07-02T02:01:00;18.00;17.00;12.75
62547;PMS7003;48602;45.192;5.722;2023-07-02T02:03:26;12.50;12.50;10.50
62547;PMS7003;48602;45.192;5.722;2023-07-02T02:05:51;10.25;9.00;7.25
62547;PMS7003;48602;45.192;5.722;2023-07-02T02:08:16;13.00;13.00;10.75
62547;PMS7003;48602;45.192;5.722;2023-07-02T02:10:42;16.00;15.50;12.25
62547;PMS7003;48602;45.192;5.722;2023-07-02T02:13:07;14.50;12.75;10.75
62547;PMS7003;48602;45.192;5.722;2023-07-02T02:15:33;16.25;13.50;11.00
62547;PMS7003;48602;45.192;5.722;2023-07-02T02:17:58;14.00;11.50;8.25
62547;PMS7003;48602;45.192;5.722;2023-07-02T02:20:23;16.25;15.50;10.00
62547;PMS7003;48602;45.192;5.722;2023-07-02T02:22:49;17.00;15.75;12.00
62547;PMS7003;48602;45.192;5.722;2023-07-02T02:25:14;16.00;14.00;9.50
62547;PMS7003;48602;45.192;5.722;2023-07-02T02:27:39;16.25;14.75;11.75
62547;PMS7003;48602;45.192;5.722;2023-07-02T02:30:06;15.50;15.50;12.75
62547;PMS7003;48602;45.192;5.722;2023-07-02T02:32:32;16.50;14.75;10.50
62547;PMS7003;48602;45.192;5.722;2023-07-02T02:34:57;15.75;14.25;11.25
62547;PMS7003;48602;45.192;5.722;2023-07-02T02:37:23;18.50;15.25;11.25
62547;PMS7003;48602;45.192;5.722;2023-07-02T02:39:48;14.25;13.50;10.50
62547;PMS7003;48602;45.192;5.722;2023-07-02T02:42:14;15.00;15.00;11.50
62547;PMS7003;48602;45.192;5.722;2023-07-02T02:44:39;18.25;16.25;11.00
62547;PMS7003;48602;45.192;5.722;2023-07-02T02:47:04;14.25;12.50;10.25
62547;PMS7003;48602;45.192;5.722;2023-07-02T02:49:30;16.00;13.50;10.00
62547;PMS7003;48602;45.192;5.722;2023-07-02T02:51:56;17.25;16.75;12.00
62547;PMS7003;48602;45.192;5.722;2023-07-02T02:54:21;17.50;16.00;13.00
62547;PMS7003;48602;45.192;5.722;2023-07-02T02:56:46;18.75;15.25;10.50
62547;PMS7003;48602;45.192;5.722;2023-07-02T02:59:12;20.50;16.50;11.00
62547;PMS7003;48602;45.192;5.722;2023-07-02T03:01:37;13.50;11.75;6.25
62547;PMS7003;48602;45.192;5.722;2023-07-02T03:04:03;15.75;15.75;11.50
62547;PMS7003;48602;45.192;5.722;2023-07-02T03:06:29;21.00;18.50;13.75
62547;PMS7003;48602;45.192;5.722;2023-07-02T03:08:55;19.50;18.25;13.25
62547;PMS7003;48602;45.192;5.722;2023-07-02T03:11:20;13.75;13.25;11.25
62547;PMS7003;48602;45.192;5.722;2023-07-02T03:13:46;15.75;14.25;10.25
62547;PMS7003;48602;45.192;5.722;2023-07-02T03:16:11;14.50;13.50;11.25
62547;PMS7003;48602;45.192;5.722;2023-07-02T03:18:36;19.50;18.25;12.50
62547;PMS7003;48602;45.192;5.722;2023-07-02T03:21:02;20.50;17.00;13.50
62547;PMS7003;48602;45.192;5.722;2023-07-02T03:23:27;17.25;16.25;13.25
62547;PMS7003;48602;45.192;5.722;2023-07-02T03:25:53;19.25;18.00;12.50
62547;PMS7003;48602;45.192;5.722;2023-07-02T03:28:18;17.75;15.75;10.50
62547;PMS7003;48602;45.192;5.722;2023-07-02T03:30:44;22.50;17.50;13.75
62547;PMS7003;48602;45.192;5.722;2023-07-02T03:33:09;17.50;17.50;11.25
62547;PMS7003;48602;45.192;5.722;2023-07-02T03:35:35;18.00;16.50;12.50
62547;PMS7003;48602;45.192;5.722;2023-07-02T03:38:00;19.25;18.25;11.75
62547;PMS7003;48602;45.192;5.722;2023-07-02T03:40:25;24.25;20.75;16.25
62547;PMS7003;48602;45.192;5.722;2023-07-02T03:42:51;23.00;19.25;12.50
62547;PMS7003;48602;45.192;5.722;2023-07-02T03:45:16;19.50;18.75;13.75
62547;PMS7003;48602;45.192;5.722;2023-07-02T03:47:42;21.25;21.25;13.50
62547;PMS7003;48602;45.192;5.722;2023-07-02T03:50:08;19.75;18.75;15.75
62547;PMS7003;48602;45.192;5.722;2023-07-02T03:52:34;24.00;18.25;13.75
62547;PMS7003;48602;45.192;5.722;2023-07-02T03:54:59;20.00;18.00;13.50
62547;PMS7003;48602;45.192;5.722;2023-07-02T03:57:25;19.25;18.75;14.25
62547;PMS7003;48602;45.192;5.722;2023-07-02T03:59:51;22.50;18.75;13.75
62547;PMS7003;48602;45.192;5.722;2023-07-02T04:02:16;23.75;20.00;15.75
62547;PMS7003;48602;45.192;5.722;2023-07-02T04:04:42;22.50;20.75;14.75
62547;PMS7003;48602;45.192;5.722;2023-07-02T04:07:07;24.75;21.00;16.75
62547;PMS7003;48602;45.192;5.722;2023-07-02T04:09:32;20.50;18.50;13.25
62547;PMS7003;48602;45.192;5.722;2023-07-02T04:11:59;27.25;21.75;15.00
62547;PMS7003;48602;45.192;5.722;2023-07-02T04:14:25;27.00;22.60;14.40
62547;PMS7003;48602;45.192;5.722;2023-07-02T04:16:50;23.75;18.25;14.50
62547;PMS7003;48602;45.192;5.722;2023-07-02T04:19:16;22.25;20.00;14.25
62547;PMS7003;48602;45.192;5.722;2023-07-02T04:21:41;25.75;20.75;16.00
62547;PMS7003;48602;45.192;5.722;2023-07-02T04:24:06;19.25;17.50;12.25
62547;PMS7003;48602;45.192;5.722;2023-07-02T04:26:32;22.75;20.00;14.50
62547;PMS7003;48602;45.192;5.722;2023-07-02T04:28:57;18.00;16.25;12.25
62547;PMS7003;48602;45.192;5.722;2023-07-02T04:31:24;9.50;5.75;4.25
62547;PMS7003;48602;45.192;5.722;2023-07-02T04:33:49;21.00;19.75;14.25
62547;PMS7003;48602;45.192;5.722;2023-07-02T04:36:14;23.00;22.75;14.50
62547;PMS7003;48602;45.192;5.722;2023-07-02T04:38:40;19.25;17.50;13.25
62547;PMS7003;48602;45.192;5.722;2023-07-02T04:41:05;23.00;21.25;15.75
62547;PMS7003;48602;45.192;5.722;2023-07-02T04:43:31;22.75;20.50;14.75
62547;PMS7003;48602;45.192;5.722;2023-07-02T04:45:58;19.50;17.00;12.50
62547;PMS7003;48602;45.192;5.722;2023-07-02T04:48:23;21.50;21.50;14.00
62547;PMS7003;48602;45.192;5.722;2023-07-02T04:50:49;21.50;20.25;13.25
62547;PMS7003;48602;45.192;5.722;2023-07-02T04:53:14;22.25;21.00;15.25
62547;PMS7003;48602;45.192;5.722;2023-07-02T04:55:40;18.50;16.00;13.00
62547;PMS7003;48602;45.192;5.722;2023-07-02T04:58:06;26.75;23.75;17.00
62547;PMS7003;48602;45.192;5.722;2023-07-02T05:00:31;20.25;18.25;14.00
62547;PMS7003;48602;45.192;5.722;2023-07-02T05:02:56;26.00;19.75;14.50
62547;PMS7003;48602;45.192;5.722;2023-07-02T05:05:22;17.25;16.75;13.50
62547;PMS7003;48602;45.192;5.722;2023-07-02T05:07:47;16.00;15.50;13.25
62547;PMS7003;48602;45.192;5.722;2023-07-02T05:10:13;19.50;17.25;12.50
62547;PMS7003;48602;45.192;5.722;2023-07-02T05:12:38;13.50;13.50;11.00
62547;PMS7003;48602;45.192;5.722;2023-07-02T05:15:04;14.50;14.00;11.25
62547;PMS7003;48602;45.192;5.722;2023-07-02T05:17:30;13.00;11.60;10.00
62547;PMS7003;48602;45.192;5.722;2023-07-02T05:19:59;13.20;12.40;10.00
62547;PMS7003;48602;45.192;5.722;2023-07-02T05:22:25;12.25;12.25;9.50
62547;PMS7003;48602;45.192;5.722;2023-07-02T05:24:50;12.75;11.50;8.75
62547;PMS7003;48602;45.192;5.722;2023-07-02T05:27:15;11.00;10.25;8.50
62547;PMS7003;48602;45.192;5.722;2023-07-02T05:29:41;19.25;16.00;12.00
62547;PMS7003;48602;45.192;5.722;2023-07-02T05:32:08;18.00;15.20;10.20
62547;PMS7003;48602;45.192;5.722;2023-07-02T05:34:33;17.75;15.00;10.75
62547;PMS7003;48602;45.192;5.722;2023-07-02T05:36:59;16.75;13.75;10.75
62547;PMS7003;48602;45.192;5.722;2023-07-02T05:39:24;12.75;11.75;9.50
62547;PMS7003;48602;45.192;5.722;2023-07-02T05:41:50;13.75;13.50;10.00
62547;PMS7003;48602;45.192;5.722;2023-07-02T05:44:15;10.00;10.00;8.00
62547;PMS7003;48602;45.192;5.722;2023-07-02T05:46:40;9.75;9.75;8.00
62547;PMS7003;48602;45.192;5.722;2023-07-02T05:49:06;7.00;5.25;5.25
62547;PMS7003;48602;45.192;5.722;2023-07-02T05:51:31;11.00;9.00;8.00
62547;PMS7003;48602;45.192;5.722;2023-07-02T05:53:56;11.50;9.00;7.75
62547;PMS7003;48602;45.192;5.722;2023-07-02T05:56:22;10.00;10.00;8.00
62547;PMS7003;48602;45.192;5.722;2023-07-02T05:58:48;8.75;8.00;6.50
62547;PMS7003;48602;45.192;5.722;2023-07-02T06:01:13;12.60;10.40;9.00
62547;PMS7003;48602;45.192;5.722;2023-07-02T06:03:39;10.50;9.00;7.25
62547;PMS7003;48602;45.192;5.722;2023-07-02T06:06:05;9.50;9.50;8.00
62547;PMS7003;48602;45.192;5.722;2023-07-02T06:08:30;11.50;10.50;8.00
62547;PMS7003;48602;45.192;5.722;2023-07-02T06:10:55;11.25;10.00;8.00
62547;PMS7003;48602;45.192;5.722;2023-07-02T06:13:21;8.25;8.25;7.00
62547;PMS7003;48602;45.192;5.722;2023-07-02T06:15:46;9.00;9.00;8.00
62547;PMS7003;48602;45.192;5.722;2023-07-02T06:18:12;10.00;9.00;7.75
62547;PMS7003;48602;45.192;5.722;2023-07-02T06:20:38;10.75;8.00;7.00
62547;PMS7003;48602;45.192;5.722;2023-07-02T06:23:03;10.00;9.00;8.00
62547;PMS7003;48602;45.192;5.722;2023-07-02T06:25:29;11.25;11.00;8.25
62547;PMS7003;48602;45.192;5.722;2023-07-02T06:27:54;8.75;7.25;6.00
62547;PMS7003;48602;45.192;5.722;2023-07-02T06:30:23;9.00;9.00;7.00
62547;PMS7003;48602;45.192;5.722;2023-07-02T06:32:49;6.00;5.60;5.60
62547;PMS7003;48602;45.192;5.722;2023-07-02T06:35:14;8.00;8.00;6.00
62547;PMS7003;48602;45.192;5.722;2023-07-02T06:37:39;7.50;6.50;6.25
62547;PMS7003;48602;45.192;5.722;2023-07-02T06:40:05;9.50;9.50;7.00
62547;PMS7003;48602;45.192;5.722;2023-07-02T06:42:31;8.40;8.00;7.00
62547;PMS7003;48602;45.192;5.722;2023-07-02T06:44:57;10.00;7.20;6.80
62547;PMS7003;48602;45.192;5.722;2023-07-02T06:47:23;11.00;9.25;8.00
62547;PMS7003;48602;45.192;5.722;2023-07-02T06:49:48;8.00;7.00;6.00
62547;PMS7003;48602;45.192;5.722;2023-07-02T06:52:14;8.75;8.75;7.00
62547;PMS7003;48602;45.192;5.722;2023-07-02T06:54:39;9.50;9.50;7.50
62547;PMS7003;48602;45.192;5.722;2023-07-02T06:57:05;9.50;9.00;8.00
62547;PMS7003;48602;45.192;5.722;2023-07-02T06:59:30;8.00;8.00;6.00
62547;PMS7003;48602;45.192;5.722;2023-07-02T07:01:56;9.00;9.00;7.00
62547;PMS7003;48602;45.192;5.722;2023-07-02T07:04:21;9.00;8.00;7.25
62547;PMS7003;48602;45.192;5.722;2023-07-02T07:06:47;4.00;4.00;3.00
62547;PMS7003;48602;45.192;5.722;2023-07-02T07:09:12;11.00;10.75;8.00
62547;PMS7003;48602;45.192;5.722;2023-07-02T07:11:37;9.75;9.00;7.25
62547;PMS7003;48602;45.192;5.722;2023-07-02T07:14:03;9.25;9.25;8.50
62547;PMS7003;48602;45.192;5.722;2023-07-02T07:16:28;14.75;10.75;8.00
62547;PMS7003;48602;45.192;5.722;2023-07-02T07:18:53;7.25;7.25;6.75
62547;PMS7003;48602;45.192;5.722;2023-07-02T07:21:19;7.00;7.00;6.25
62547;PMS7003;48602;45.192;5.722;2023-07-02T07:23:44;8.00;8.00;7.00
62547;PMS7003;48602;45.192;5.722;2023-07-02T07:26:10;9.00;7.00;6.00
62547;PMS7003;48602;45.192;5.722;2023-07-02T07:28:35;8.00;8.00;7.00
62547;PMS7003;48602;45.192;5.722;2023-07-02T07:31:01;9.00;8.00;7.50
62547;PMS7003;48602;45.192;5.722;2023-07-02T07:33:26;12.00;10.75;8.00
62547;PMS7003;48602;45.192;5.722;2023-07-02T07:35:52;8.75;8.75;8.00
62547;PMS7003;48602;45.192;5.722;2023-07-02T07:38:18;20.75;19.50;12.25
62547;PMS7003;48602;45.192;5.722;2023-07-02T07:40:43;19.00;16.25;11.75
62547;PMS7003;48602;45.192;5.722;2023-07-02T07:43:09;25.50;23.25;15.75
62547;PMS7003;48602;45.192;5.722;2023-07-02T07:45:34;23.25;17.25;12.50
62547;PMS7003;48602;45.192;5.722;2023-07-02T07:48:00;29.25;26.75;17.50
62547;PMS7003;48602;45.192;5.722;2023-07-02T07:50:25;26.75;23.75;18.00
62547;PMS7003;48602;45.192;5.722;2023-07-02T07:52:51;29.50;26.50;15.75
62547;PMS7003;48602;45.192;5.722;2023-07-02T07:55:16;26.50;20.00;14.75
62547;PMS7003;48602;45.192;5.722;2023-07-02T07:57:42;24.50;23.50;18.25
62547;PMS7003;48602;45.192;5.722;2023-07-02T08:00:08;22.25;20.50;15.50
62547;PMS7003;48602;45.192;5.722;2023-07-02T08:02:36;21.75;21.25;13.00
62547;PMS7003;48602;45.192;5.722;2023-07-02T08:05:02;27.25;24.00;15.25
62547;PMS7003;48602;45.192;5.722;2023-07-02T08:07:28;23.60;21.60;15.60
62547;PMS7003;48602;45.192;5.722;2023-07-02T08:09:53;23.00;21.25;16.00
62547;PMS7003;48602;45.192;5.722;2023-07-02T08:12:18;30.25;26.75;18.75
62547;PMS7003;48602;45.192;5.722;2023-07-02T08:14:44;29.50;24.50;18.00
62547;PMS7003;48602;45.192;5.722;2023-07-02T08:17:09;26.00;25.50;17.75
62547;PMS7003;48602;45.192;5.722;2023-07-02T08:19:35;27.00;24.75;16.25
62547;PMS7003;48602;45.192;5.722;2023-07-02T08:22:00;19.00;13.00;10.25
62547;PMS7003;48602;45.192;5.722;2023-07-02T08:24:25;19.75;14.75;13.00
62547;PMS7003;48602;45.192;5.722;2023-07-02T08:26:51;24.00;20.50;14.50
62547;PMS7003;48602;45.192;5.722;2023-07-02T08:29:16;19.75;17.50;12.25
62547;PMS7003;48602;45.192;5.722;2023-07-02T08:31:41;32.00;27.50;20.25
62547;PMS7003;48602;45.192;5.722;2023-07-02T08:34:08;19.00;16.75;12.50
62547;PMS7003;48602;45.192;5.722;2023-07-02T08:36:33;29.75;25.75;16.25
62547;PMS7003;48602;45.192;5.722;2023-07-02T08:38:59;30.25;27.50;19.00
62547;PMS7003;48602;45.192;5.722;2023-07-02T08:41:24;33.25;28.75;19.25
62547;PMS7003;48602;45.192;5.722;2023-07-02T08:43:49;24.50;18.50;12.75
62547;PMS7003;48602;45.192;5.722;2023-07-02T08:46:16;29.75;28.75;18.50
62547;PMS7003;48602;45.192;5.722;2023-07-02T08:48:42;28.25;26.75;19.50
62547;PMS7003;48602;45.192;5.722;2023-07-02T08:51:08;20.75;19.75;15.00
62547;PMS7003;48602;45.192;5.722;2023-07-02T08:53:33;29.75;27.00;17.75
62547;PMS7003;48602;45.192;5.722;2023-07-02T08:56:00;25.50;23.00;13.50
62547;PMS7003;48602;45.192;5.722;2023-07-02T08:58:26;28.25;25.50;17.75
62547;PMS7003;48602;45.192;5.722;2023-07-02T09:01:11;26.75;23.75;17.25
62547;PMS7003;48602;45.192;5.722;2023-07-02T09:03:38;29.50;26.50;18.75
62547;PMS7003;48602;45.192;5.722;2023-07-02T09:06:05;33.25;29.00;17.25
62547;PMS7003;48602;45.192;5.722;2023-07-02T09:08:32;22.75;20.25;12.50
62547;PMS7003;48602;45.192;5.722;2023-07-02T09:13:41;28.50;25.00;19.50
62547;PMS7003;48602;45.192;5.722;2023-07-02T09:16:31;28.25;25.25;17.50
62547;PMS7003;48602;45.192;5.722;2023-07-02T09:19:01;32.25;25.25;15.25
62547;PMS7003;48602;45.192;5.722;2023-07-02T09:24:16;32.50;28.00;18.25
62547;PMS7003;48602;45.192;5.722;2023-07-02T09:26:46;28.00;27.00;18.00
62547;PMS7003;48602;45.192;5.722;2023-07-02T09:29:26;24.25;22.50;16.25
62547;PMS7003;48602;45.192;5.722;2023-07-02T09:31:57;25.25;23.75;18.25
62547;PMS7003;48602;45.192;5.722;2023-07-02T09:34:30;28.50;24.50;16.25
62547;PMS7003;48602;45.192;5.722;2023-07-02T09:37:00;31.20;25.80;14.80
62547;PMS7003;48602;45.192;5.722;2023-07-02T09:41:54;24.25;24.25;18.25
62547;PMS7003;48602;45.192;5.722;2023-07-02T09:44:21;28.25;25.00;17.00
62547;PMS7003;48602;45.192;5.722;2023-07-02T09:46:49;21.40;21.40;15.40
62547;PMS7003;48602;45.192;5.722;2023-07-02T09:49:21;28.00;22.50;16.75
62547;PMS7003;48602;45.192;5.722;2023-07-02T09:51:48;25.25;23.75;15.50
62547;PMS7003;48602;45.192;5.722;2023-07-02T09:54:14;25.00;23.00;14.50
62547;PMS7003;48602;45.192;5.722;2023-07-02T09:56:40;23.00;21.40;12.80
62547;PMS7003;48602;45.192;5.722;2023-07-02T09:59:06;32.25;29.50;19.75
62547;PMS7003;48602;45.192;5.722;2023-07-02T10:01:31;27.75;23.75;16.00
62547;PMS7003;48602;45.192;5.722;2023-07-02T10:03:57;23.25;22.50;15.75
62547;PMS7003;48602;45.192;5.722;2023-07-02T10:06:22;26.50;24.00;17.25
62547;PMS7003;48602;45.192;5.722;2023-07-02T10:08:56;26.75;25.50;17.50
62547;PMS7003;48602;45.192;5.722;2023-07-02T10:11:32;27.00;25.50;20.25
62547;PMS7003;48602;45.192;5.722;2023-07-02T10:14:02;21.25;19.50;13.50
62547;PMS7003;48602;45.192;5.722;2023-07-02T10:16:27;30.25;27.75;18.00
62547;PMS7003;48602;45.192;5.722;2023-07-02T10:18:53;29.25;28.25;18.25
62547;PMS7003;48602;45.192;5.722;2023-07-02T10:21:19;15.25;13.00;11.25
62547;PMS7003;48602;45.192;5.722;2023-07-02T10:23:45;16.75;15.25;8.75
62547;PMS7003;48602;45.192;5.722;2023-07-02T10:26:18;30.75;27.25;17.75
62547;PMS7003;48602;45.192;5.722;2023-07-02T10:28:59;32.75;28.75;19.00
62547;PMS7003;48602;45.192;5.722;2023-07-02T10:31:25;23.00;19.25;15.25
62547;PMS7003;48602;45.192;5.722;2023-07-02T10:33:50;24.00;16.75;14.75
62547;PMS7003;48602;45.192;5.722;2023-07-02T10:36:19;29.50;27.25;18.75
62547;PMS7003;48602;45.192;5.722;2023-07-02T10:38:46;26.50;21.00;12.00
62547;PMS7003;48602;45.192;5.722;2023-07-02T10:41:12;27.25;25.75;19.50
62547;PMS7003;48602;45.192;5.722;2023-07-02T10:43:37;26.00;24.75;18.75
62547;PMS7003;48602;45.192;5.722;2023-07-02T10:46:03;30.00;25.75;18.00
62547;PMS7003;48602;45.192;5.722;2023-07-02T10:48:30;22.00;19.00;13.50
62547;PMS7003;48602;45.192;5.722;2023-07-02T10:50:56;16.75;15.00;11.00
62547;PMS7003;48602;45.192;5.722;2023-07-02T10:53:21;23.75;23.25;15.00
62547;PMS7003;48602;45.192;5.722;2023-07-02T10:55:53;33.75;25.25;17.75
62547;PMS7003;48602;45.192;5.722;2023-07-02T10:58:22;28.25;27.00;16.25
62547;PMS7003;48602;45.192;5.722;2023-07-02T11:00:49;22.25;20.50;13.00
62547;PMS7003;48602;45.192;5.722;2023-07-02T11:03:16;26.00;23.75;16.00
62547;PMS7003;48602;45.192;5.722;2023-07-02T11:05:48;31.00;24.50;18.00
62547;PMS7003;48602;45.192;5.722;2023-07-02T11:08:15;30.50;26.50;19.00
62547;PMS7003;48602;45.192;5.722;2023-07-02T11:10:41;27.75;27.50;17.75
62547;PMS7003;48602;45.192;5.722;2023-07-02T11:13:16;25.00;24.00;16.00
62547;PMS7003;48602;45.192;5.722;2023-07-02T11:15:43;26.50;24.75;15.50
62547;PMS7003;48602;45.192;5.722;2023-07-02T11:20:40;24.00;21.50;16.00
62547;PMS7003;48602;45.192;5.722;2023-07-02T11:23:16;19.25;19.25;11.25
62547;PMS7003;48602;45.192;5.722;2023-07-02T11:25:54;21.20;20.40;16.40
62547;PMS7003;48602;45.192;5.722;2023-07-02T11:28:23;27.25;23.75;17.00
62547;PMS7003;48602;45.192;5.722;2023-07-02T11:30:48;23.75;21.00;13.00
62547;PMS7003;48602;45.192;5.722;2023-07-02T11:33:14;24.75;24.25;18.00
62547;PMS7003;48602;45.192;5.722;2023-07-02T11:35:39;24.00;20.25;15.00
62547;PMS7003;48602;45.192;5.722;2023-07-02T11:38:04;18.75;17.50;12.00
62547;PMS7003;48602;45.192;5.722;2023-07-02T11:40:30;14.50;13.50;9.25
62547;PMS7003;48602;45.192;5.722;2023-07-02T11:42:55;20.25;17.25;12.50
62547;PMS7003;48602;45.192;5.722;2023-07-02T11:45:20;24.25;24.25;18.00
62547;PMS7003;48602;45.192;5.722;2023-07-02T11:47:46;17.75;17.00;14.50
62547;PMS7003;48602;45.192;5.722;2023-07-02T11:50:11;18.25;18.25;11.75
62547;PMS7003;48602;45.192;5.722;2023-07-02T11:52:37;15.25;13.00;7.50
62547;PMS7003;48602;45.192;5.722;2023-07-02T11:55:03;13.50;11.50;9.25
62547;PMS7003;48602;45.192;5.722;2023-07-02T11:57:28;15.25;13.00;9.00
62547;PMS7003;48602;45.192;5.722;2023-07-02T11:59:53;11.75;11.75;9.50
62547;PMS7003;48602;45.192;5.722;2023-07-02T12:02:19;9.75;7.75;5.75
62547;PMS7003;48602;45.192;5.722;2023-07-02T12:04:44;14.50;14.00;9.50
62547;PMS7003;48602;45.192;5.722;2023-07-02T12:07:10;15.00;13.00;10.00
62547;PMS7003;48602;45.192;5.722;2023-07-02T12:09:35;15.75;15.50;11.75
62547;PMS7003;48602;45.192;5.722;2023-07-02T12:12:01;9.00;9.00;5.00
62547;PMS7003;48602;45.192;5.722;2023-07-02T12:14:27;13.60;12.00;8.00
62547;PMS7003;48602;45.192;5.722;2023-07-02T12:16:53;13.50;13.50;11.50
62547;PMS7003;48602;45.192;5.722;2023-07-02T12:19:18;17.75;16.50;12.00
62547;PMS7003;48602;45.192;5.722;2023-07-02T12:21:44;13.75;13.50;10.00
62547;PMS7003;48602;45.192;5.722;2023-07-02T12:24:09;14.00;12.25;9.75
62547;PMS7003;48602;45.192;5.722;2023-07-02T12:26:36;10.40;9.00;6.60
62547;PMS7003;48602;45.192;5.722;2023-07-02T12:29:02;15.40;13.20;9.60
62547;PMS7003;48602;45.192;5.722;2023-07-02T12:31:27;11.75;11.00;9.00
62547;PMS7003;48602;45.192;5.722;2023-07-02T12:33:52;11.50;10.25;8.25
62547;PMS7003;48602;45.192;5.722;2023-07-02T12:36:18;12.00;12.00;9.00
62547;PMS7003;48602;45.192;5.722;2023-07-02T12:38:43;11.50;9.50;8.00
62547;PMS7003;48602;45.192;5.722;2023-07-02T12:41:08;9.75;7.00;4.75
62547;PMS7003;48602;45.192;5.722;2023-07-02T12:43:34;13.00;12.00;9.00
62547;PMS7003;48602;45.192;5.722;2023-07-02T12:45:59;14.75;10.50;8.25
62547;PMS7003;48602;45.192;5.722;2023-07-02T12:48:24;9.25;8.00;7.25
62547;PMS7003;48602;45.192;5.722;2023-07-02T12:50:54;11.00;11.00;7.00
62547;PMS7003;48602;45.192;5.722;2023-07-02T12:53:20;11.60;10.60;8.80
62547;PMS7003;48602;45.192;5.722;2023-07-02T12:55:46;9.75;8.25;6.25
62547;PMS7003;48602;45.192;5.722;2023-07-02T12:58:11;12.00;12.00;9.00
62547;PMS7003;48602;45.192;5.722;2023-07-02T13:00:36;11.75;11.75;9.75
62547;PMS7003;48602;45.192;5.722;2023-07-02T13:03:02;10.00;10.00;7.00
62547;PMS7003;48602;45.192;5.722;2023-07-02T13:05:27;9.50;7.50;7.00
62547;PMS7003;48602;45.192;5.722;2023-07-02T13:07:53;7.00;7.00;6.25
62547;PMS7003;48602;45.192;5.722;2023-07-02T13:10:18;8.25;7.25;5.75
62547;PMS7003;48602;45.192;5.722;2023-07-02T13:12:44;6.25;5.75;5.00
62547;PMS7003;48602;45.192;5.722;2023-07-02T13:15:09;8.00;6.25;4.75
62547;PMS7003;48602;45.192;5.722;2023-07-02T13:17:36;7.00;7.00;6.00
62547;PMS7003;48602;45.192;5.722;2023-07-02T13:20:01;4.50;4.00;3.00
62547;PMS7003;48602;45.192;5.722;2023-07-02T13:22:27;3.80;3.80;2.20
62547;PMS7003;48602;45.192;5.722;2023-07-02T13:24:53;8.00;6.50;5.25
62547;PMS7003;48602;45.192;5.722;2023-07-02T13:27:18;9.75;9.75;8.00
62547;PMS7003;48602;45.192;5.722;2023-07-02T13:29:44;8.25;8.25;6.25
62547;PMS7003;48602;45.192;5.722;2023-07-02T13:32:09;8.25;8.25;6.25
62547;PMS7003;48602;45.192;5.722;2023-07-02T13:34:36;4.80;4.80;3.80
62547;PMS7003;48602;45.192;5.722;2023-07-02T13:37:02;10.25;8.50;7.00
62547;PMS7003;48602;45.192;5.722;2023-07-02T13:39:28;9.00;8.00;6.60
62547;PMS7003;48602;45.192;5.722;2023-07-02T13:41:54;8.00;8.00;6.40
62547;PMS7003;48602;45.192;5.722;2023-07-02T13:44:19;8.50;8.00;7.00
62547;PMS7003;48602;45.192;5.722;2023-07-02T13:46:45;7.75;7.75;6.00
62547;PMS7003;48602;45.192;5.722;2023-07-02T13:49:12;8.40;8.20;6.80
62547;PMS7003;48602;45.192;5.722;2023-07-02T13:51:37;4.75;4.50;4.00
62547;PMS7003;48602;45.192;5.722;2023-07-02T13:54:04;8.40;5.40;5.40
62547;PMS7003;48602;45.192;5.722;2023-07-02T13:56:29;9.00;7.75;6.00
62547;PMS7003;48602;45.192;5.722;2023-07-02T14:01:20;6.75;4.50;3.25
62547;PMS7003;48602;45.192;5.722;2023-07-02T14:03:46;9.50;8.00;6.75
62547;PMS7003;48602;45.192;5.722;2023-07-02T14:06:11;8.00;7.00;4.25